Time;durP1;ratioP1;P1;durP2;ratioP2;P2;SDS_P1;SDS_P2;PMS_P1;PMS_P2;Temp;Humidity;BMP_temperature;BMP_pressure;BME280_temperature;BME280_humidity;BME280_pressure;Samples;Min_cycle;Max_cycle;Signal;HPM_P1;HPM_P2
2020/12/01 00:00:42;;;;;;;53.75;28.23;;;1.60;99.90;;;;;;5081289;28;20044;-77
2020/12/01 00:03:08;;;;;;;57.10;28.92;;;1.70;99.90;;;;;;5066886;28;20064;-77
2020/12/01 00:05:35;;;;;;;54.33;30.83;;;1.80;99.90;;;;;;5074713;28;20044;-76
2020/12/01 00:08:03;;;;;;;55.95;28.75;;;1.80;99.90;;;;;;5081999;28;20056;-76
2020/12/01 00:10:34;;;;;;;63.40;31.77;;;1.70;99.90;;;;;;5084338;28;20559;-75
2020/12/01 00:13:01;;;;;;;61.58;31.45;;;1.80;99.90;;;;;;5083144;28;20054;-76
2020/12/01 00:15:28;;;;;;;62.72;30.60;;;1.80;99.90;;;;;;5085942;28;20069;-75
2020/12/01 00:17:54;;;;;;;68.32;31.00;;;1.80;99.90;;;;;;5081225;28;20044;-76
2020/12/01 00:20:23;;;;;;;61.85;30.40;;;1.80;99.90;;;;;;5084477;28;20484;-76
2020/12/01 00:22:50;;;;;;;57.33;29.50;;;1.90;99.90;;;;;;5091208;28;20048;-76
2020/12/01 00:25:17;;;;;;;62.67;30.33;;;1.80;99.90;;;;;;5085650;28;20052;-76
2020/12/01 00:27:43;;;;;;;64.57;30.33;;;1.80;99.90;;;;;;5066619;28;20044;-76
2020/12/01 00:30:28;;;;;;;57.40;28.85;;;1.80;99.90;;;;;;5083635;28;20056;-76
2020/12/01 00:32:55;;;;;;;65.47;29.17;;;1.80;99.90;;;;;;5048148;28;20586;-76
2020/12/01 00:35:28;;;;;;;55.67;28.50;;;1.80;99.90;;;;;;5084422;28;20056;-76
2020/12/01 00:37:55;;;;;;;50.70;26.27;;;1.80;99.90;;;;;;5081692;28;20040;-76
2020/12/01 00:40:22;;;;;;;53.47;26.00;;;1.80;99.90;;;;;;5066305;28;20413;-76
2020/12/01 00:42:51;;;;;;;44.80;23.17;;;1.80;99.90;;;;;;5064545;28;20526;-76
2020/12/01 00:45:18;;;;;;;55.38;28.48;;;1.80;99.90;;;;;;5069901;28;20051;-76
2020/12/01 00:47:44;;;;;;;51.75;26.98;;;1.80;99.90;;;;;;5063310;28;20615;-76
2020/12/01 00:50:16;;;;;;;46.78;24.30;;;1.80;99.90;;;;;;5066905;28;20052;-75
2020/12/01 00:52:43;;;;;;;49.78;25.90;;;1.80;99.90;;;;;;5066719;28;20052;-75
2020/12/01 00:55:10;;;;;;;47.20;24.80;;;1.80;99.90;;;;;;5071955;28;20048;-75
2020/12/01 00:57:37;;;;;;;52.88;27.25;;;1.80;99.90;;;;;;5046278;28;20048;-78
2020/12/01 01:00:11;;;;;;;55.83;28.35;;;1.80;99.90;;;;;;5063564;28;20045;-75
2020/12/01 01:03:02;;;;;;;49.17;26.55;;;1.80;99.90;;;;;;5082557;28;20036;-76
2020/12/01 01:05:28;;;;;;;47.80;26.95;;;1.80;99.90;;;;;;5082716;28;20135;-75
2020/12/01 01:07:54;;;;;;;53.38;26.55;;;1.80;99.90;;;;;;5065961;28;20048;-76
2020/12/01 01:10:30;;;;;;;54.53;28.20;;;1.80;99.90;;;;;;5077922;28;20052;-75
2020/12/01 01:12:56;;;;;;;50.45;27.55;;;1.80;99.90;;;;;;5060457;28;20449;-76
2020/12/01 01:15:25;;;;;;;51.50;27.52;;;1.80;99.90;;;;;;5085712;28;20132;-75
2020/12/01 01:17:51;;;;;;;50.22;24.65;;;1.90;99.90;;;;;;5082846;28;20058;-75
2020/12/01 01:20:18;;;;;;;54.40;27.33;;;1.90;99.90;;;;;;5089048;28;20060;-76
2020/12/01 01:22:44;;;;;;;51.05;25.67;;;1.90;99.90;;;;;;5075109;28;20078;-75
2020/12/01 01:25:12;;;;;;;48.40;26.25;;;1.90;99.90;;;;;;5054134;28;20040;-76
2020/12/01 01:27:38;;;;;;;52.05;27.30;;;1.90;99.90;;;;;;5079237;28;20056;-76
2020/12/01 01:30:06;;;;;;;50.42;24.98;;;2.00;99.90;;;;;;5088529;28;20063;-76
2020/12/01 01:32:33;;;;;;;50.78;26.15;;;2.00;99.90;;;;;;5083246;28;20161;-77
2020/12/01 01:34:59;;;;;;;52.03;25.58;;;2.10;99.90;;;;;;5087532;28;20516;-75
2020/12/01 01:37:26;;;;;;;50.92;26.50;;;2.00;99.90;;;;;;5081669;28;20061;-76
2020/12/01 01:39:52;;;;;;;45.78;23.17;;;2.00;99.90;;;;;;5084083;28;20417;-76
2020/12/01 01:42:18;;;;;;;44.67;24.10;;;1.90;99.90;;;;;;5068852;28;20047;-76
2020/12/01 01:44:45;;;;;;;43.28;25.05;;;1.90;99.90;;;;;;5060109;28;20035;-76
2020/12/01 01:47:16;;;;;;;40.47;23.20;;;1.90;99.90;;;;;;5082173;28;20044;-76
2020/12/01 01:49:43;;;;;;;48.20;25.75;;;1.90;99.90;;;;;;5053417;28;20052;-76
2020/12/01 01:52:15;;;;;;;45.13;23.27;;;1.90;99.90;;;;;;5084372;28;20110;-76
2020/12/01 01:54:44;;;;;;;45.38;21.58;;;1.90;99.90;;;;;;5052957;28;20420;-75
2020/12/01 01:57:11;;;;;;;45.17;24.42;;;1.90;99.90;;;;;;5086765;28;20075;-75
2020/12/01 01:59:39;;;;;;;43.03;23.00;;;1.90;99.90;;;;;;5053760;28;20315;-75
2020/12/01 02:02:06;;;;;;;44.95;25.20;;;1.90;99.90;;;;;;5085855;28;20114;-76
2020/12/01 02:04:32;;;;;;;50.45;25.83;;;1.90;99.90;;;;;;5086585;28;20040;-76
2020/12/01 02:07:04;;;;;;;46.03;23.50;;;2.00;99.90;;;;;;5083612;28;20059;-76
2020/12/01 02:09:46;;;;;;;48.92;26.55;;;1.90;99.90;;;;;;5080600;28;20479;-76
2020/12/01 02:12:16;;;;;;;45.97;25.27;;;2.00;99.90;;;;;;5066571;28;20040;-75
2020/12/01 02:14:48;;;;;;;43.00;24.00;;;2.00;99.90;;;;;;5084940;28;20538;-76
2020/12/01 02:17:31;;;;;;;44.22;24.38;;;2.00;99.90;;;;;;5065363;28;20040;-75
2020/12/01 02:20:05;;;;;;;44.88;23.77;;;2.10;99.90;;;;;;5087235;28;20060;-76
2020/12/01 02:22:32;;;;;;;43.13;23.98;;;2.20;99.90;;;;;;5081786;28;20048;-76
2020/12/01 02:24:59;;;;;;;47.08;24.45;;;2.10;99.90;;;;;;5085831;28;20157;-75
2020/12/01 02:27:27;;;;;;;48.20;25.00;;;2.10;99.90;;;;;;5052899;28;20046;-75
2020/12/01 02:29:56;;;;;;;44.75;24.17;;;2.10;99.90;;;;;;5086172;28;20524;-76
2020/12/01 02:32:24;;;;;;;42.95;23.30;;;2.20;99.90;;;;;;5083988;28;20065;-75
2020/12/01 02:34:52;;;;;;;41.42;24.15;;;2.20;99.90;;;;;;5085966;28;20052;-76
2020/12/01 02:37:22;;;;;;;43.67;24.13;;;2.20;99.90;;;;;;5085152;28;20586;-76
2020/12/01 02:39:48;;;;;;;45.10;23.70;;;2.30;99.90;;;;;;5085736;28;20682;-76
2020/12/01 02:42:22;;;;;;;47.60;26.90;;;2.40;99.90;;;;;;5070118;28;20040;-76
2020/12/01 02:44:52;;;;;;;45.30;24.67;;;2.40;99.90;;;;;;5087383;28;20052;-76
2020/12/01 02:47:19;;;;;;;50.22;24.52;;;2.50;99.90;;;;;;5083505;28;20607;-76
2020/12/01 02:49:46;;;;;;;41.25;23.52;;;2.50;99.90;;;;;;5084243;28;20413;-76
2020/12/01 02:52:12;;;;;;;41.05;23.90;;;2.60;99.90;;;;;;5080895;28;20127;-75
2020/12/01 02:54:46;;;;;;;42.50;24.65;;;2.50;99.90;;;;;;5065450;28;20059;-75
2020/12/01 02:57:14;;;;;;;47.67;24.60;;;2.50;99.90;;;;;;5078387;28;20646;-76
2020/12/01 02:59:40;;;;;;;44.80;23.67;;;2.40;99.90;;;;;;5092261;28;20472;-75
2020/12/01 03:02:06;;;;;;;48.72;25.77;;;2.40;99.90;;;;;;5067535;28;20129;-76
2020/12/01 03:04:32;;;;;;;48.00;25.08;;;2.40;99.90;;;;;;5051690;28;20055;-76
2020/12/01 03:06:59;;;;;;;45.25;23.98;;;2.40;99.90;;;;;;5081654;28;20185;-76
2020/12/01 03:09:25;;;;;;;47.78;26.80;;;2.40;99.90;;;;;;5062933;28;20137;-76
2020/12/01 03:11:52;;;;;;;48.22;26.02;;;2.40;99.90;;;;;;5071221;28;20040;-76
2020/12/01 03:14:19;;;;;;;44.08;25.85;;;2.30;99.90;;;;;;5085415;28;20048;-76
2020/12/01 03:16:47;;;;;;;48.55;26.42;;;2.40;99.90;;;;;;5087726;28;20416;-75
2020/12/01 03:19:14;;;;;;;45.60;24.88;;;2.40;99.90;;;;;;5086440;28;20445;-75
2020/12/01 03:21:41;;;;;;;46.33;26.77;;;2.40;99.90;;;;;;5067377;28;20232;-75
2020/12/01 03:24:07;;;;;;;50.83;26.35;;;2.30;99.90;;;;;;5065180;28;20037;-76
2020/12/01 03:26:33;;;;;;;45.00;25.83;;;2.30;99.90;;;;;;5031938;28;20048;-75
2020/12/01 03:28:59;;;;;;;45.15;25.05;;;2.30;99.90;;;;;;5084331;28;20048;-76
2020/12/01 03:31:26;;;;;;;47.65;26.08;;;2.20;99.90;;;;;;5064574;28;20058;-76
2020/12/01 03:33:52;;;;;;;45.92;25.23;;;2.30;99.90;;;;;;5065034;28;20052;-76
2020/12/01 03:36:19;;;;;;;46.38;25.52;;;2.20;99.90;;;;;;5068947;28;20052;-76
2020/12/01 03:38:46;;;;;;;49.03;26.33;;;2.30;99.90;;;;;;5067751;28;20531;-76
2020/12/01 03:41:13;;;;;;;48.65;25.77;;;2.30;99.90;;;;;;5084105;28;20047;-77
2020/12/01 03:43:40;;;;;;;45.22;24.10;;;2.30;99.90;;;;;;5085182;28;20054;-76
2020/12/01 03:46:07;;;;;;;50.17;26.05;;;2.30;99.90;;;;;;5086365;28;20045;-76
2020/12/01 03:48:33;;;;;;;45.53;25.58;;;2.30;99.90;;;;;;5084060;28;20048;-76
2020/12/01 03:51:00;;;;;;;51.53;27.42;;;2.30;99.90;;;;;;5049618;28;20066;-76
2020/12/01 03:53:26;;;;;;;54.65;26.67;;;2.30;99.90;;;;;;5067709;28;20139;-75
2020/12/01 03:55:54;;;;;;;49.60;25.90;;;2.20;99.90;;;;;;5084379;28;20083;-75
2020/12/01 03:58:20;;;;;;;49.60;25.52;;;2.20;99.90;;;;;;5068040;28;20182;-75
2020/12/01 04:00:46;;;;;;;49.85;25.42;;;2.20;99.90;;;;;;5063962;28;20036;-76
2020/12/01 04:03:13;;;;;;;51.80;24.88;;;2.10;99.90;;;;;;5067219;28;20028;-75
2020/12/01 04:05:39;;;;;;;45.30;24.85;;;2.10;99.90;;;;;;5059623;28;20036;-75
2020/12/01 04:08:10;;;;;;;52.15;24.95;;;2.20;99.90;;;;;;5066831;28;20052;-76
2020/12/01 04:10:37;;;;;;;48.17;25.55;;;2.20;99.90;;;;;;5067660;28;20078;-76
2020/12/01 04:13:04;;;;;;;46.58;26.77;;;2.20;99.90;;;;;;5081999;28;20362;-76
2020/12/01 04:15:30;;;;;;;42.58;24.02;;;2.30;99.90;;;;;;5069395;28;20516;-76
2020/12/01 04:17:57;;;;;;;43.60;24.00;;;2.30;99.90;;;;;;5081450;28;20071;-75
2020/12/01 04:20:23;;;;;;;45.22;23.92;;;2.30;99.90;;;;;;5086439;28;20043;-76
2020/12/01 04:22:49;;;;;;;45.45;24.70;;;2.30;99.90;;;;;;5079805;28;20052;-77
2020/12/01 04:25:22;;;;;;;47.75;25.05;;;2.40;99.90;;;;;;5067566;28;20083;-77
2020/12/01 04:27:49;;;;;;;44.35;25.13;;;2.40;99.90;;;;;;5083420;28;20086;-77
2020/12/01 04:30:18;;;;;;;44.55;24.85;;;2.40;99.90;;;;;;5067421;28;20054;-78
2020/12/01 04:32:44;;;;;;;50.83;25.17;;;2.40;99.90;;;;;;5065934;28;20058;-77
2020/12/01 04:35:12;;;;;;;44.42;24.30;;;2.40;99.90;;;;;;5078328;28;20501;-77
2020/12/01 04:37:38;;;;;;;53.33;25.02;;;2.40;99.90;;;;;;5081354;28;20067;-77
2020/12/01 04:40:08;;;;;;;49.78;26.00;;;2.30;99.90;;;;;;5084050;28;20048;-77
2020/12/01 04:42:43;;;;;;;53.15;27.50;;;2.30;99.90;;;;;;5084892;28;20135;-77
2020/12/01 04:45:12;;;;;;;47.10;24.55;;;2.30;99.90;;;;;;5072013;28;20035;-76
2020/12/01 04:48:00;;;;;;;48.92;25.00;;;2.30;99.90;;;;;;5078226;28;20054;-76
2020/12/01 04:50:50;;;;;;;46.92;24.05;;;2.20;99.90;;;;;;5048031;28;20088;-77
2020/12/01 04:53:44;;;;;;;51.15;24.92;;;2.20;99.90;;;;;;5081587;28;20131;-77
2020/12/01 04:56:35;;;;;;;44.67;23.25;;;2.20;99.90;;;;;;5086293;28;20695;-77
2020/12/01 04:59:18;;;;;;;51.10;24.83;;;2.20;99.90;;;;;;5087252;28;20048;-76
2020/12/01 05:01:44;;;;;;;49.38;24.67;;;2.20;99.90;;;;;;5086914;28;20046;-77
2020/12/01 05:04:47;;;;;;;44.30;23.70;;;2.20;99.90;;;;;;5077067;28;20422;-77
2020/12/01 05:07:44;;;;;;;43.45;23.70;;;2.20;99.90;;;;;;5066972;28;20051;-76
2020/12/01 05:10:12;;;;;;;43.38;24.20;;;2.20;99.90;;;;;;5089236;28;20401;-77
2020/12/01 05:12:53;;;;;;;49.80;26.52;;;2.20;99.90;;;;;;5065039;28;20528;-77
2020/12/01 05:15:31;;;;;;;51.70;26.85;;;2.30;99.90;;;;;;5090264;28;20535;-76
2020/12/01 05:18:25;;;;;;;54.15;27.02;;;2.30;99.90;;;;;;5052036;28;20044;-76
2020/12/01 05:20:54;;;;;;;51.47;25.90;;;2.40;99.90;;;;;;5068413;28;20051;-77
2020/12/01 05:23:29;;;;;;;55.78;26.98;;;2.40;99.90;;;;;;5088640;28;20052;-77
2020/12/01 05:26:05;;;;;;;55.83;25.65;;;2.50;99.90;;;;;;5070596;28;20079;-77
2020/12/01 05:28:46;;;;;;;51.25;26.98;;;2.40;99.90;;;;;;5088204;28;20062;-77
2020/12/01 05:31:14;;;;;;;44.40;25.23;;;2.40;99.90;;;;;;5064754;28;20052;-76
2020/12/01 05:33:41;;;;;;;59.50;24.95;;;2.40;99.90;;;;;;5088397;28;20052;-77
2020/12/01 05:36:18;;;;;;;47.50;25.35;;;2.30;99.90;;;;;;5065120;28;20506;-76
2020/12/01 05:39:16;;;;;;;46.30;24.38;;;2.30;99.90;;;;;;5083603;28;20067;-76
2020/12/01 05:41:45;;;;;;;47.45;24.08;;;2.30;99.90;;;;;;5087904;28;20044;-77
2020/12/01 05:44:19;;;;;;;42.58;23.45;;;2.30;99.90;;;;;;5088938;28;20479;-77
2020/12/01 05:46:54;;;;;;;47.85;24.15;;;2.20;99.90;;;;;;5070092;28;20697;-77
2020/12/01 05:49:38;;;;;;;42.40;23.95;;;2.20;99.90;;;;;;5067962;28;20051;-78
2020/12/01 05:52:12;;;;;;;46.97;24.08;;;2.30;99.90;;;;;;5083347;28;20052;-77
2020/12/01 05:54:41;;;;;;;51.25;25.08;;;2.30;99.90;;;;;;5089275;28;20579;-77
2020/12/01 05:57:24;;;;;;;45.55;24.67;;;2.30;99.90;;;;;;5068177;28;20087;-76
2020/12/01 05:59:53;;;;;;;41.15;22.88;;;2.30;99.90;;;;;;5050721;28;20044;-76
2020/12/01 06:02:30;;;;;;;46.63;22.50;;;2.30;99.90;;;;;;5066841;28;20043;-76
2020/12/01 06:04:57;;;;;;;48.92;23.42;;;2.40;99.90;;;;;;5068809;28;20070;-76
2020/12/01 06:07:26;;;;;;;49.60;23.73;;;2.40;99.90;;;;;;5083783;28;20045;-76
2020/12/01 06:09:58;;;;;;;45.88;24.33;;;2.40;99.90;;;;;;5051169;28;20050;-78
2020/12/01 06:12:47;;;;;;;43.88;23.58;;;2.40;99.90;;;;;;5081181;28;20056;-76
2020/12/01 06:15:19;;;;;;;45.78;23.15;;;2.40;99.90;;;;;;5084827;28;20423;-76
2020/12/01 06:17:51;;;;;;;46.90;22.42;;;2.40;99.90;;;;;;5081621;28;20527;-77
2020/12/01 06:20:29;;;;;;;43.97;22.60;;;2.30;99.90;;;;;;5089145;28;20042;-77
2020/12/01 06:23:17;;;;;;;48.30;24.35;;;2.30;99.90;;;;;;5061873;28;20207;-77
2020/12/01 06:26:07;;;;;;;46.45;23.60;;;2.30;99.90;;;;;;5079689;28;20048;-78
2020/12/01 06:29:05;;;;;;;46.72;22.45;;;2.30;99.90;;;;;;5082481;28;20052;-77
2020/12/01 06:31:45;;;;;;;43.95;24.17;;;2.30;99.90;;;;;;5087324;28;20138;-77
2020/12/01 06:34:35;;;;;;;46.78;24.13;;;2.30;99.90;;;;;;5085773;28;20043;-77
2020/12/01 06:37:26;;;;;;;43.58;22.45;;;2.20;99.90;;;;;;5082498;28;20532;-77
2020/12/01 06:40:00;;;;;;;44.13;23.80;;;2.30;99.90;;;;;;5082375;28;20123;-77
2020/12/01 06:42:35;;;;;;;46.70;23.92;;;2.30;99.90;;;;;;5057811;28;20079;-77
2020/12/01 06:45:13;;;;;;;39.17;22.40;;;2.30;99.90;;;;;;5056723;28;20056;-77
2020/12/01 06:47:40;;;;;;;51.17;23.45;;;2.40;99.90;;;;;;5084035;28;20632;-77
2020/12/01 06:50:16;;;;;;;46.30;25.63;;;2.40;99.90;;;;;;5047902;28;20044;-77
2020/12/01 06:52:53;;;;;;;47.08;23.85;;;2.40;99.90;;;;;;5082479;28;20056;-76
2020/12/01 06:55:45;;;;;;;49.50;25.33;;;2.40;99.90;;;;;;5089186;28;20047;-77
2020/12/01 06:58:21;;;;;;;44.30;23.85;;;2.40;99.90;;;;;;5065469;28;20776;-77
2020/12/01 07:00:47;;;;;;;43.58;22.60;;;2.40;99.90;;;;;;5078329;28;20420;-77
2020/12/01 07:03:23;;;;;;;46.90;23.60;;;2.50;99.90;;;;;;5043516;28;20051;-77
2020/12/01 07:05:50;;;;;;;50.65;25.42;;;2.50;99.90;;;;;;5079924;28;20040;-77
2020/12/01 07:08:26;;;;;;;48.03;24.60;;;2.50;99.90;;;;;;5048970;28;20032;-78
2020/12/01 07:11:09;;;;;;;46.55;24.20;;;2.50;99.90;;;;;;5062856;28;20401;-77
2020/12/01 07:13:57;;;;;;;47.25;24.40;;;2.50;99.90;;;;;;5064422;28;20485;-77
2020/12/01 07:16:30;;;;;;;41.80;22.23;;;2.50;99.90;;;;;;5079735;28;20052;-78
2020/12/01 07:19:04;;;;;;;46.08;24.08;;;2.40;99.90;;;;;;5084353;28;20070;-77
2020/12/01 07:21:57;;;;;;;51.08;22.92;;;2.40;99.90;;;;;;5065658;28;20135;-77
2020/12/01 07:24:42;;;;;;;41.05;22.48;;;2.30;99.90;;;;;;5060552;28;20050;-77
2020/12/01 07:27:19;;;;;;;46.97;22.63;;;2.30;99.90;;;;;;5083946;28;20633;-78
2020/12/01 07:29:46;;;;;;;42.85;22.17;;;2.30;99.90;;;;;;5084544;28;20494;-77
2020/12/01 07:32:22;;;;;;;41.67;22.77;;;2.30;99.90;;;;;;5066485;28;20777;-76
2020/12/01 07:34:51;;;;;;;45.13;23.35;;;2.20;99.90;;;;;;5066840;28;20054;-77
2020/12/01 07:37:40;;;;;;;40.42;20.90;;;2.20;99.90;;;;;;5080120;28;20263;-77
2020/12/01 07:40:07;;;;;;;45.40;21.50;;;2.20;99.90;;;;;;5083856;28;20051;-77
2020/12/01 07:42:36;;;;;;;42.38;22.73;;;2.20;99.90;;;;;;5090349;28;20051;-77
2020/12/01 07:45:13;;;;;;;58.45;24.30;;;2.20;99.90;;;;;;5095288;28;20190;-76
2020/12/01 07:47:39;;;;;;;42.78;22.63;;;2.20;99.90;;;;;;5066140;28;20083;-75
2020/12/01 07:50:14;;;;;;;47.08;22.77;;;2.20;99.90;;;;;;5065199;28;20048;-75
2020/12/01 07:52:46;;;;;;;44.08;24.02;;;2.30;99.90;;;;;;5066145;28;20468;-77
2020/12/01 07:55:37;;;;;;;38.38;20.70;;;2.30;99.90;;;;;;5083256;28;20044;-75
2020/12/01 07:58:15;;;;;;;43.92;22.42;;;2.30;99.90;;;;;;5083536;28;20201;-75
2020/12/01 08:00:53;;;;;;;42.95;21.98;;;2.30;99.90;;;;;;5080051;28;20910;-76
2020/12/01 08:03:21;;;;;;;;;;;2.20;99.90;;;;;;5071603;28;20526;-77
2020/12/01 08:05:49;;;;;;;40.80;20.73;;;2.30;99.90;;;;;;5058865;28;19936;-76
2020/12/01 08:08:22;;;;;;;41.85;22.40;;;2.30;99.90;;;;;;5080126;28;20048;-77
2020/12/01 08:10:50;;;;;;;36.63;22.80;;;2.40;99.90;;;;;;5075521;28;20049;-77
2020/12/01 08:13:18;;;;;;;38.55;22.15;;;2.40;99.90;;;;;;5075141;28;20052;-77
2020/12/01 08:15:46;;;;;;;43.35;23.23;;;2.50;99.90;;;;;;5082432;28;20052;-76
2020/12/01 08:18:15;;;;;;;39.22;22.88;;;2.50;99.90;;;;;;5076606;28;20040;-76
2020/12/01 08:20:42;;;;;;;43.83;23.65;;;2.50;99.90;;;;;;5076957;28;20491;-74
2020/12/01 08:23:22;;;;;;;37.83;22.95;;;2.60;99.90;;;;;;5078608;28;20055;-76
2020/12/01 08:26:04;;;;;;;66.15;26.77;;;2.60;99.90;;;;;;5084169;28;20048;-76
2020/12/01 08:28:42;;;;;;;42.38;23.63;;;2.60;99.90;;;;;;5078712;28;20047;-76
2020/12/01 08:31:30;;;;;;;45.55;23.35;;;2.60;99.90;;;;;;5076324;28;20760;-75
2020/12/01 08:34:29;;;;;;;43.00;23.52;;;2.70;99.90;;;;;;5075909;28;20087;-76
2020/12/01 08:37:02;;;;;;;40.25;22.27;;;2.70;99.90;;;;;;5076667;28;20546;-76
2020/12/01 08:39:54;;;;;;;45.33;22.38;;;2.80;99.90;;;;;;5070441;28;20049;-76
2020/12/01 08:42:31;;;;;;;41.28;23.92;;;2.80;99.90;;;;;;5079798;28;20135;-75
2020/12/01 08:45:28;;;;;;;45.70;23.88;;;2.90;99.90;;;;;;5085287;28;20504;-76
2020/12/01 08:48:01;;;;;;;53.17;23.73;;;2.90;99.90;;;;;;5077673;28;20055;-75
2020/12/01 08:50:37;;;;;;;47.80;23.55;;;3.00;99.90;;;;;;5066327;28;20058;-76
2020/12/01 08:53:06;;;;;;;43.28;23.73;;;3.10;99.90;;;;;;5065228;28;20675;-76
2020/12/01 08:55:41;;;;;;;41.20;23.92;;;3.10;99.90;;;;;;5071636;28;20121;-77
2020/12/01 08:58:27;;;;;;;42.95;23.27;;;3.10;99.90;;;;;;5082026;28;20054;-76
2020/12/01 09:01:06;;;;;;;39.15;23.75;;;3.20;99.90;;;;;;5067782;28;20382;-75
2020/12/01 09:03:34;;;;;;;44.35;24.75;;;3.20;99.90;;;;;;5081324;28;20040;-75
2020/12/01 09:06:03;;;;;;;37.10;22.15;;;3.20;99.90;;;;;;5080238;28;20041;-74
2020/12/01 09:14:00;;;;;;;49.47;25.70;;;3.30;99.90;;;;;;5060202;28;20082;-73
2020/12/01 09:16:43;;;;;;;42.95;24.10;;;3.20;99.90;;;;;;5067217;28;20357;-73
2020/12/01 09:21:59;;;;;;;;;;;3.30;99.90;;;;;;5074062;28;20054;-72
2020/12/01 09:24:28;;;;;;;38.90;21.27;;;3.30;99.90;;;;;;5082700;28;20003;-73
2020/12/01 09:27:15;;;;;;;38.83;20.88;;;3.40;99.90;;;;;;5091979;28;20047;-73
2020/12/01 09:29:50;;;;;;;35.50;21.38;;;3.60;99.90;;;;;;5048974;28;20063;-73
2020/12/01 09:32:21;;;;;;;;;;;3.70;99.90;;;;;;5075155;28;20109;-72
2020/12/01 09:34:49;;;;;;;39.90;21.38;;;3.90;99.90;;;;;;5081839;28;19927;-72
2020/12/01 09:37:15;;;;;;;37.20;23.30;;;3.90;99.90;;;;;;5076366;28;20374;-73
2020/12/01 09:39:41;;;;;;;33.28;22.10;;;4.00;99.90;;;;;;5079836;28;20072;-73
2020/12/01 09:42:31;;;;;;;35.92;24.23;;;4.10;99.90;;;;;;5053327;28;20292;-73
2020/12/01 09:45:09;;;;;;;38.80;25.17;;;4.20;99.90;;;;;;5084063;28;20098;-74
2020/12/01 09:50:05;;;;;;;32.72;20.83;;;4.20;99.90;;;;;;5064867;28;20049;-74
2020/12/01 09:52:47;;;;;;;34.08;21.15;;;4.30;99.90;;;;;;5066049;28;20048;-74
2020/12/01 09:55:35;;;;;;;32.03;22.50;;;4.40;99.90;;;;;;5087202;28;20127;-74
2020/12/01 09:58:23;;;;;;;32.95;20.90;;;4.40;99.90;;;;;;5085375;28;20040;-73
2020/12/01 10:08:55;;;;;;;30.70;20.73;;;4.40;99.90;;;;;;5080773;28;20056;-73
2020/12/01 10:12:07;;;;;;;30.88;19.63;;;4.40;99.90;;;;;;5063608;28;20493;-73
2020/12/01 10:31:46;;;;;;;34.40;20.20;;;4.70;99.90;;;;;;5067067;28;20045;-72
2020/12/01 10:36:15;;;;;;;32.70;19.20;;;4.60;99.90;;;;;;5078982;28;20157;-73
2020/12/01 10:38:41;;;;;;;30.92;20.40;;;4.60;99.90;;;;;;5082406;28;20048;-73
2020/12/01 10:41:07;;;;;;;33.55;20.67;;;4.60;99.90;;;;;;5066556;28;20040;-73
2020/12/01 10:43:34;;;;;;;30.80;20.58;;;4.50;99.90;;;;;;5083117;28;20443;-74
2020/12/01 10:46:00;;;;;;;39.72;23.05;;;4.50;99.90;;;;;;5081257;28;20044;-73
2020/12/01 10:48:26;;;;;;;45.95;27.80;;;4.40;99.90;;;;;;5082369;28;20058;-73
2020/12/01 10:50:52;;;;;;;36.65;22.52;;;4.40;99.90;;;;;;5069470;28;20131;-73
2020/12/01 10:53:19;;;;;;;33.42;22.42;;;4.30;99.90;;;;;;5068056;28;20052;-73
2020/12/01 10:55:45;;;;;;;37.95;23.65;;;4.20;99.90;;;;;;5066207;28;20036;-73
2020/12/01 10:58:11;;;;;;;40.17;23.77;;;4.20;99.90;;;;;;5081940;28;20044;-74
2020/12/01 11:00:38;;;;;;;39.63;24.25;;;4.10;99.90;;;;;;5082806;28;20062;-74
2020/12/01 11:03:04;;;;;;;38.42;24.58;;;4.10;99.90;;;;;;5065949;28;20068;-74
2020/12/01 11:05:31;;;;;;;39.72;23.95;;;4.20;99.90;;;;;;5065681;28;20062;-74
2020/12/01 11:07:58;;;;;;;36.47;24.25;;;4.20;99.90;;;;;;5059073;28;20059;-73
2020/12/01 11:10:26;;;;;;;39.65;24.85;;;4.20;99.90;;;;;;5078466;28;20090;-73
2020/12/01 11:12:52;;;;;;;43.45;26.95;;;4.10;99.90;;;;;;5064311;28;20397;-73
2020/12/01 11:15:18;;;;;;;40.22;25.45;;;4.10;99.90;;;;;;5084135;28;20178;-73
2020/12/01 11:17:45;;;;;;;39.28;24.63;;;4.00;99.90;;;;;;5058322;28;20063;-73
2020/12/01 11:20:13;;;;;;;39.25;25.88;;;3.90;99.90;;;;;;5062774;28;20045;-73
2020/12/01 11:22:39;;;;;;;37.63;22.92;;;3.90;99.90;;;;;;5072721;28;20152;-72
2020/12/01 11:25:06;;;;;;;41.83;26.30;;;3.90;99.90;;;;;;5083025;28;20054;-73
2020/12/01 11:27:32;;;;;;;35.60;23.92;;;3.90;99.90;;;;;;5055017;28;20588;-72
2020/12/01 11:29:58;;;;;;;37.05;23.48;;;3.80;99.90;;;;;;5066012;28;20134;-73
2020/12/01 11:32:25;;;;;;;36.58;24.30;;;3.80;99.90;;;;;;5080290;28;20427;-73
2020/12/01 11:34:51;;;;;;;41.88;24.60;;;3.80;99.90;;;;;;5080451;28;20063;-73
2020/12/01 11:37:17;;;;;;;34.97;22.50;;;3.80;99.90;;;;;;5082361;28;22075;-73
2020/12/01 11:39:44;;;;;;;43.25;25.88;;;3.60;99.90;;;;;;5083558;28;20044;-73
2020/12/01 11:42:10;;;;;;;44.88;25.13;;;3.60;99.90;;;;;;5072450;28;20044;-72
2020/12/01 11:44:36;;;;;;;36.20;23.75;;;3.50;99.90;;;;;;5078219;28;20040;-73
2020/12/01 11:47:03;;;;;;;41.25;24.58;;;3.60;99.90;;;;;;5074910;28;20117;-73
2020/12/01 11:49:29;;;;;;;43.25;23.77;;;3.50;99.90;;;;;;5078429;28;20067;-72
2020/12/01 11:51:55;;;;;;;39.08;24.45;;;3.50;99.90;;;;;;5077119;28;20051;-73
2020/12/01 11:54:22;;;;;;;37.10;23.35;;;3.40;99.90;;;;;;5060106;28;20715;-73
2020/12/01 11:56:48;;;;;;;40.67;23.52;;;3.40;99.90;;;;;;5080256;28;20071;-73
2020/12/01 11:59:14;;;;;;;45.05;24.27;;;3.40;99.90;;;;;;5061247;28;20204;-74
2020/12/01 12:01:41;;;;;;;48.72;25.63;;;3.40;99.90;;;;;;5076465;28;20052;-74
2020/12/01 12:04:07;;;;;;;52.28;28.17;;;3.40;99.90;;;;;;5067279;28;20059;-73
2020/12/01 12:06:35;;;;;;;55.03;30.55;;;3.40;99.90;;;;;;5085613;28;20052;-73
2020/12/01 12:09:04;;;;;;;53.53;27.65;;;3.50;99.90;;;;;;5081465;28;20539;-73
2020/12/01 12:11:31;;;;;;;57.25;29.52;;;3.60;99.90;;;;;;5072476;28;20048;-73
2020/12/01 12:13:58;;;;;;;45.47;24.27;;;3.70;99.90;;;;;;5082055;28;20067;-73
2020/12/01 12:16:24;;;;;;;80.95;40.42;;;3.60;99.90;;;;;;5045290;28;20632;-73
2020/12/01 12:18:51;;;;;;;67.95;38.90;;;3.60;99.90;;;;;;5078641;28;20040;-73
2020/12/01 12:21:18;;;;;;;62.42;31.45;;;3.60;99.90;;;;;;5081808;28;20097;-73
2020/12/01 12:23:46;;;;;;;54.05;28.40;;;3.70;99.90;;;;;;5078174;28;20043;-73
2020/12/01 12:26:13;;;;;;;81.93;45.72;;;3.70;99.90;;;;;;5067850;28;20040;-73
2020/12/01 12:28:39;;;;;;;53.08;29.90;;;3.70;99.90;;;;;;5097957;28;20547;-73
2020/12/01 12:31:06;;;;;;;63.92;31.15;;;3.70;99.90;;;;;;5089149;28;20050;-73
2020/12/01 12:33:34;;;;;;;40.35;24.48;;;3.60;99.90;;;;;;5082661;28;20055;-73
2020/12/01 12:36:00;;;;;;;107.93;51.20;;;3.60;99.90;;;;;;5078094;28;20168;-72
2020/12/01 12:38:28;;;;;;;62.75;31.33;;;3.70;99.90;;;;;;5080895;28;20051;-73
2020/12/01 12:40:55;;;;;;;128.60;69.13;;;3.70;99.90;;;;;;5084185;28;20078;-73
2020/12/01 12:43:22;;;;;;;42.08;26.38;;;3.70;99.90;;;;;;5085246;28;20408;-73
2020/12/01 12:45:49;;;;;;;50.38;29.17;;;3.70;99.90;;;;;;5079917;28;20185;-72
2020/12/01 12:48:17;;;;;;;42.95;25.77;;;3.70;99.90;;;;;;5080955;28;20467;-73
2020/12/01 12:50:44;;;;;;;49.25;26.98;;;3.80;99.90;;;;;;5061994;28;20513;-73
2020/12/01 12:53:10;;;;;;;40.15;25.33;;;3.90;99.90;;;;;;5081345;28;20054;-73
2020/12/01 12:55:36;;;;;;;38.83;23.95;;;3.90;99.90;;;;;;5082651;28;20423;-73
2020/12/01 12:58:03;;;;;;;41.13;22.08;;;4.00;99.90;;;;;;5080023;28;20507;-73
2020/12/01 13:00:33;;;;;;;49.72;24.50;;;4.10;99.90;;;;;;5087073;28;20064;-73
2020/12/01 13:02:59;;;;;;;41.47;23.25;;;4.10;99.90;;;;;;5081054;28;20055;-73
2020/12/01 13:05:26;;;;;;;38.47;23.52;;;4.20;99.90;;;;;;5081194;28;20360;-72
2020/12/01 13:07:54;;;;;;;42.88;24.88;;;4.20;99.90;;;;;;5061304;28;20060;-73
2020/12/01 13:10:21;;;;;;;43.42;23.27;;;4.30;99.90;;;;;;5082518;28;20049;-73
2020/12/01 13:12:48;;;;;;;44.95;25.40;;;4.30;99.90;;;;;;5075089;28;20078;-73
2020/12/01 13:15:15;;;;;;;42.72;24.52;;;4.30;99.90;;;;;;5084708;28;20054;-73
2020/12/01 13:17:41;;;;;;;39.10;22.77;;;4.40;99.90;;;;;;5079957;28;20043;-73
2020/12/01 13:20:13;;;;;;;42.05;23.58;;;4.40;99.90;;;;;;5085939;28;20797;-73
2020/12/01 13:22:40;;;;;;;38.05;22.08;;;4.40;99.90;;;;;;5085668;28;20139;-74
2020/12/01 13:25:06;;;;;;;36.47;22.35;;;4.40;99.90;;;;;;5069870;28;20051;-74
2020/12/01 13:27:33;;;;;;;40.58;23.33;;;4.40;99.90;;;;;;5072905;28;20055;-74
2020/12/01 13:29:59;;;;;;;41.28;23.30;;;4.50;99.90;;;;;;5086395;28;20064;-73
2020/12/01 13:32:26;;;;;;;48.13;25.15;;;4.50;99.90;;;;;;5083121;28;20482;-73
2020/12/01 13:34:52;;;;;;;44.10;25.88;;;4.50;99.90;;;;;;5085729;28;20135;-74
2020/12/01 13:37:19;;;;;;;41.92;23.98;;;4.60;99.90;;;;;;5066798;28;20059;-74